New Augusta, Indiana
Current Conditions -  °F | °C
As of 12:53 PM on Monday 24 Nov 2014 (Local Time) from KEYE Reporting Station
Light Rain Light Rain  
Wind Chill: 28°   Ceiling: 1800
Heat Index: 38°   Visibility: 10mi
Dew Point: 33°   Wind: 20mph
Humidity: 83%   Direction: 230°SW
Pressure: 29.54"   Gusts: 31mph
Location:  39.8902°N, 86.2967°W
Report Text: KEYE 241753Z AUTO 23017G27KT 10SM -RA OVC018 03/01 A2954 RMK AO2 PK WND 22027/1753 RAB15 SLP005 P0000 60005 T00330006 10133 20033 51062 $
Loading
Personal Weather Stations






























Interactive Weather Map New forecast layout! Learn more

10-Day Weather Forecast

Advertisements
Track Severe Weather on mobile